sensor_id;sensor_type;location;lat;lon;timestamp;temperature;humidity
41928;DHT22;27616;51.420;6.788;2023-05-09T00:01:57;15.90;99.90
41928;DHT22;27616;51.420;6.788;2023-05-09T00:04:24;15.90;99.90
41928;DHT22;27616;51.420;6.788;2023-05-09T00:06:50;15.90;99.90
41928;DHT22;27616;51.420;6.788;2023-05-09T00:09:16;15.90;99.90
41928;DHT22;27616;51.420;6.788;2023-05-09T00:11:42;15.80;99.90
41928;DHT22;27616;51.420;6.788;2023-05-09T00:14:09;15.80;99.90
41928;DHT22;27616;51.420;6.788;2023-05-09T00:16:35;15.80;99.90
41928;DHT22;27616;51.420;6.788;2023-05-09T00:19:01;15.80;99.90
41928;DHT22;27616;51.420;6.788;2023-05-09T00:21:29;15.80;99.90
41928;DHT22;27616;51.420;6.788;2023-05-09T00:23:55;15.70;99.90
41928;DHT22;27616;51.420;6.788;2023-05-09T00:26:21;15.70;99.90
41928;DHT22;27616;51.420;6.788;2023-05-09T00:28:48;15.70;99.90
41928;DHT22;27616;51.420;6.788;2023-05-09T00:31:13;15.60;99.90
41928;DHT22;27616;51.420;6.788;2023-05-09T00:33:39;15.70;99.90
41928;DHT22;27616;51.420;6.788;2023-05-09T00:36:05;15.60;99.90
41928;DHT22;27616;51.420;6.788;2023-05-09T00:38:31;15.70;99.90
41928;DHT22;27616;51.420;6.788;2023-05-09T00:40:57;15.70;99.90
41928;DHT22;27616;51.420;6.788;2023-05-09T00:43:23;15.70;99.90
41928;DHT22;27616;51.420;6.788;2023-05-09T00:45:48;15.60;99.90
41928;DHT22;27616;51.420;6.788;2023-05-09T00:48:15;15.60;99.90
41928;DHT22;27616;51.420;6.788;2023-05-09T00:50:41;15.60;99.90
41928;DHT22;27616;51.420;6.788;2023-05-09T00:53:08;15.60;99.90
41928;DHT22;27616;51.420;6.788;2023-05-09T00:55:34;15.60;99.90
41928;DHT22;27616;51.420;6.788;2023-05-09T00:58:00;15.50;99.90
41928;DHT22;27616;51.420;6.788;2023-05-09T01:00:27;15.60;99.90
41928;DHT22;27616;51.420;6.788;2023-05-09T01:02:54;15.60;99.90
41928;DHT22;27616;51.420;6.788;2023-05-09T01:05:23;15.60;99.90
41928;DHT22;27616;51.420;6.788;2023-05-09T01:08:43;15.60;99.90
41928;DHT22;27616;51.420;6.788;2023-05-09T01:11:08;15.60;99.90
41928;DHT22;27616;51.420;6.788;2023-05-09T01:13:56;15.60;99.90
41928;DHT22;27616;51.420;6.788;2023-05-09T01:17:07;15.60;99.90
41928;DHT22;27616;51.420;6.788;2023-05-09T01:22:28;15.60;99.90
41928;DHT22;27616;51.420;6.788;2023-05-09T01:30:04;15.60;99.90
41928;DHT22;27616;51.420;6.788;2023-05-09T01:32:32;15.60;99.90
41928;DHT22;27616;51.420;6.788;2023-05-09T01:35:02;15.60;99.90
41928;DHT22;27616;51.420;6.788;2023-05-09T01:37:32;15.60;99.90
41928;DHT22;27616;51.420;6.788;2023-05-09T01:40:03;15.60;99.90
41928;DHT22;27616;51.420;6.788;2023-05-09T01:42:39;15.70;99.90
41928;DHT22;27616;51.420;6.788;2023-05-09T01:45:07;15.70;99.90
41928;DHT22;27616;51.420;6.788;2023-05-09T01:47:34;15.70;99.90
41928;DHT22;27616;51.420;6.788;2023-05-09T01:50:02;15.70;99.90
41928;DHT22;27616;51.420;6.788;2023-05-09T01:52:30;15.70;99.90
41928;DHT22;27616;51.420;6.788;2023-05-09T01:54:58;15.70;99.90
41928;DHT22;27616;51.420;6.788;2023-05-09T01:57:27;15.70;99.90
41928;DHT22;27616;51.420;6.788;2023-05-09T01:59:55;15.70;99.90
41928;DHT22;27616;51.420;6.788;2023-05-09T02:02:26;15.70;99.90
41928;DHT22;27616;51.420;6.788;2023-05-09T02:04:54;15.60;99.90
41928;DHT22;27616;51.420;6.788;2023-05-09T02:07:21;15.70;99.90
41928;DHT22;27616;51.420;6.788;2023-05-09T02:09:52;15.60;99.90
41928;DHT22;27616;51.420;6.788;2023-05-09T02:12:25;15.60;99.90
41928;DHT22;27616;51.420;6.788;2023-05-09T02:14:50;15.60;99.90
41928;DHT22;27616;51.420;6.788;2023-05-09T02:17:16;15.60;99.90
41928;DHT22;27616;51.420;6.788;2023-05-09T02:19:42;15.60;99.90
41928;DHT22;27616;51.420;6.788;2023-05-09T02:22:09;15.60;99.90
41928;DHT22;27616;51.420;6.788;2023-05-09T02:24:35;15.60;99.90
41928;DHT22;27616;51.420;6.788;2023-05-09T02:27:04;15.60;99.90
41928;DHT22;27616;51.420;6.788;2023-05-09T02:29:31;15.60;99.90
41928;DHT22;27616;51.420;6.788;2023-05-09T02:32:11;15.70;99.90
41928;DHT22;27616;51.420;6.788;2023-05-09T02:34:38;15.70;99.90
41928;DHT22;27616;51.420;6.788;2023-05-09T02:37:06;15.80;99.90
41928;DHT22;27616;51.420;6.788;2023-05-09T02:39:33;15.70;99.90
41928;DHT22;27616;51.420;6.788;2023-05-09T02:42:06;15.70;99.90
41928;DHT22;27616;51.420;6.788;2023-05-09T02:44:32;15.70;99.90
41928;DHT22;27616;51.420;6.788;2023-05-09T02:46:59;15.70;99.90
41928;DHT22;27616;51.420;6.788;2023-05-09T02:49:25;15.70;99.90
41928;DHT22;27616;51.420;6.788;2023-05-09T02:51:51;15.60;99.90
41928;DHT22;27616;51.420;6.788;2023-05-09T02:54:17;15.70;99.90
41928;DHT22;27616;51.420;6.788;2023-05-09T02:56:43;15.70;99.90
41928;DHT22;27616;51.420;6.788;2023-05-09T02:59:08;15.70;99.90
41928;DHT22;27616;51.420;6.788;2023-05-09T03:01:34;15.70;99.90
41928;DHT22;27616;51.420;6.788;2023-05-09T03:04:01;15.70;99.90
41928;DHT22;27616;51.420;6.788;2023-05-09T03:06:27;15.70;99.90
41928;DHT22;27616;51.420;6.788;2023-05-09T03:08:53;15.70;99.90
41928;DHT22;27616;51.420;6.788;2023-05-09T03:11:21;15.70;99.90
41928;DHT22;27616;51.420;6.788;2023-05-09T03:13:47;15.60;99.90
41928;DHT22;27616;51.420;6.788;2023-05-09T03:16:16;15.70;99.90
41928;DHT22;27616;51.420;6.788;2023-05-09T03:18:42;15.70;99.90
41928;DHT22;27616;51.420;6.788;2023-05-09T03:21:08;15.70;99.90
41928;DHT22;27616;51.420;6.788;2023-05-09T03:23:36;15.70;99.90
41928;DHT22;27616;51.420;6.788;2023-05-09T03:26:01;15.70;99.90
41928;DHT22;27616;51.420;6.788;2023-05-09T03:28:28;15.60;99.90
41928;DHT22;27616;51.420;6.788;2023-05-09T03:30:57;15.70;99.90
41928;DHT22;27616;51.420;6.788;2023-05-09T03:33:25;15.70;99.90
41928;DHT22;27616;51.420;6.788;2023-05-09T03:35:52;15.70;99.90
41928;DHT22;27616;51.420;6.788;2023-05-09T03:38:18;15.70;99.90
41928;DHT22;27616;51.420;6.788;2023-05-09T03:40:44;15.60;99.90
41928;DHT22;27616;51.420;6.788;2023-05-09T03:43:10;15.60;99.90
41928;DHT22;27616;51.420;6.788;2023-05-09T03:45:37;15.60;99.90
41928;DHT22;27616;51.420;6.788;2023-05-09T03:48:04;15.60;99.90
41928;DHT22;27616;51.420;6.788;2023-05-09T03:50:34;15.70;99.90
41928;DHT22;27616;51.420;6.788;2023-05-09T03:53:01;15.70;99.90
41928;DHT22;27616;51.420;6.788;2023-05-09T03:55:27;15.70;99.90
41928;DHT22;27616;51.420;6.788;2023-05-09T03:57:53;15.70;99.90
41928;DHT22;27616;51.420;6.788;2023-05-09T04:00:20;15.70;99.90
41928;DHT22;27616;51.420;6.788;2023-05-09T04:02:56;15.70;99.90
41928;DHT22;27616;51.420;6.788;2023-05-09T04:05:30;15.70;99.90
41928;DHT22;27616;51.420;6.788;2023-05-09T04:07:58;15.70;99.90
41928;DHT22;27616;51.420;6.788;2023-05-09T04:10:25;15.60;99.90
41928;DHT22;27616;51.420;6.788;2023-05-09T04:12:53;15.60;99.90
41928;DHT22;27616;51.420;6.788;2023-05-09T04:15:18;15.70;99.90
41928;DHT22;27616;51.420;6.788;2023-05-09T04:17:45;15.70;99.90
41928;DHT22;27616;51.420;6.788;2023-05-09T04:20:11;15.70;99.90
41928;DHT22;27616;51.420;6.788;2023-05-09T04:22:37;15.70;99.90
41928;DHT22;27616;51.420;6.788;2023-05-09T04:25:03;15.60;99.90
41928;DHT22;27616;51.420;6.788;2023-05-09T04:27:29;15.60;99.90
41928;DHT22;27616;51.420;6.788;2023-05-09T04:29:55;15.60;99.90
41928;DHT22;27616;51.420;6.788;2023-05-09T04:32:21;15.60;99.90
41928;DHT22;27616;51.420;6.788;2023-05-09T04:34:48;15.70;99.90
41928;DHT22;27616;51.420;6.788;2023-05-09T04:37:19;15.70;99.90
41928;DHT22;27616;51.420;6.788;2023-05-09T04:39:45;15.70;99.90
41928;DHT22;27616;51.420;6.788;2023-05-09T04:42:18;15.70;99.90
41928;DHT22;27616;51.420;6.788;2023-05-09T04:44:43;15.70;99.90
41928;DHT22;27616;51.420;6.788;2023-05-09T04:47:09;15.70;99.90
41928;DHT22;27616;51.420;6.788;2023-05-09T04:49:36;15.70;99.90
41928;DHT22;27616;51.420;6.788;2023-05-09T04:52:02;15.60;99.90
41928;DHT22;27616;51.420;6.788;2023-05-09T04:54:27;15.60;99.90
41928;DHT22;27616;51.420;6.788;2023-05-09T04:56:53;15.60;99.90
41928;DHT22;27616;51.420;6.788;2023-05-09T04:59:19;15.60;99.90
41928;DHT22;27616;51.420;6.788;2023-05-09T05:01:45;15.50;99.90
41928;DHT22;27616;51.420;6.788;2023-05-09T05:04:12;15.60;99.90
41928;DHT22;27616;51.420;6.788;2023-05-09T05:06:37;15.50;99.90
41928;DHT22;27616;51.420;6.788;2023-05-09T05:09:03;15.50;99.90
41928;DHT22;27616;51.420;6.788;2023-05-09T05:11:30;15.50;99.90
41928;DHT22;27616;51.420;6.788;2023-05-09T05:13:56;15.50;99.90
41928;DHT22;27616;51.420;6.788;2023-05-09T05:16:22;15.50;99.90
41928;DHT22;27616;51.420;6.788;2023-05-09T05:18:48;15.50;99.90
41928;DHT22;27616;51.420;6.788;2023-05-09T05:21:15;15.50;99.90
41928;DHT22;27616;51.420;6.788;2023-05-09T05:23:42;15.60;99.90
41928;DHT22;27616;51.420;6.788;2023-05-09T05:26:09;15.60;99.90
41928;DHT22;27616;51.420;6.788;2023-05-09T05:28:35;15.70;99.90
41928;DHT22;27616;51.420;6.788;2023-05-09T05:31:02;15.60;99.90
41928;DHT22;27616;51.420;6.788;2023-05-09T05:33:28;15.60;99.90
41928;DHT22;27616;51.420;6.788;2023-05-09T05:35:54;15.70;99.90
41928;DHT22;27616;51.420;6.788;2023-05-09T05:38:20;15.70;99.90
41928;DHT22;27616;51.420;6.788;2023-05-09T05:40:50;15.70;99.90
41928;DHT22;27616;51.420;6.788;2023-05-09T05:43:16;15.60;99.90
41928;DHT22;27616;51.420;6.788;2023-05-09T05:45:42;15.70;99.90
41928;DHT22;27616;51.420;6.788;2023-05-09T05:48:13;15.70;99.90
41928;DHT22;27616;51.420;6.788;2023-05-09T05:50:38;15.90;99.90
41928;DHT22;27616;51.420;6.788;2023-05-09T05:53:04;15.90;99.90
41928;DHT22;27616;51.420;6.788;2023-05-09T05:55:32;16.10;99.90
41928;DHT22;27616;51.420;6.788;2023-05-09T05:57:57;16.20;99.90
41928;DHT22;27616;51.420;6.788;2023-05-09T06:00:24;16.40;99.90
41928;DHT22;27616;51.420;6.788;2023-05-09T06:02:57;16.40;99.90
41928;DHT22;27616;51.420;6.788;2023-05-09T06:05:43;16.40;99.90
41928;DHT22;27616;51.420;6.788;2023-05-09T06:08:11;16.60;99.90
41928;DHT22;27616;51.420;6.788;2023-05-09T06:10:37;16.70;99.90
41928;DHT22;27616;51.420;6.788;2023-05-09T06:13:02;16.80;99.90
41928;DHT22;27616;51.420;6.788;2023-05-09T06:15:28;16.90;99.90
41928;DHT22;27616;51.420;6.788;2023-05-09T06:17:54;17.00;99.90
41928;DHT22;27616;51.420;6.788;2023-05-09T06:20:20;17.00;99.90
41928;DHT22;27616;51.420;6.788;2023-05-09T06:22:46;17.00;99.90
41928;DHT22;27616;51.420;6.788;2023-05-09T06:25:11;17.00;99.90
41928;DHT22;27616;51.420;6.788;2023-05-09T06:27:37;17.00;99.90
41928;DHT22;27616;51.420;6.788;2023-05-09T06:30:04;16.90;99.90
41928;DHT22;27616;51.420;6.788;2023-05-09T06:32:29;17.00;99.90
41928;DHT22;27616;51.420;6.788;2023-05-09T06:34:55;17.00;99.90
41928;DHT22;27616;51.420;6.788;2023-05-09T06:37:21;17.10;99.90
41928;DHT22;27616;51.420;6.788;2023-05-09T06:39:46;17.30;99.90
41928;DHT22;27616;51.420;6.788;2023-05-09T06:42:12;17.40;99.90
41928;DHT22;27616;51.420;6.788;2023-05-09T06:44:38;17.50;99.90
41928;DHT22;27616;51.420;6.788;2023-05-09T06:47:04;17.50;99.90
41928;DHT22;27616;51.420;6.788;2023-05-09T06:49:30;17.60;99.90
41928;DHT22;27616;51.420;6.788;2023-05-09T06:51:55;17.70;99.90
41928;DHT22;27616;51.420;6.788;2023-05-09T06:54:21;17.80;99.90
41928;DHT22;27616;51.420;6.788;2023-05-09T06:56:47;17.90;99.90
41928;DHT22;27616;51.420;6.788;2023-05-09T06:59:12;17.90;99.90
41928;DHT22;27616;51.420;6.788;2023-05-09T07:01:41;17.90;99.90
41928;DHT22;27616;51.420;6.788;2023-05-09T07:04:06;17.90;99.90
41928;DHT22;27616;51.420;6.788;2023-05-09T07:06:32;18.10;99.90
41928;DHT22;27616;51.420;6.788;2023-05-09T07:08:58;18.20;99.90
41928;DHT22;27616;51.420;6.788;2023-05-09T07:11:24;18.30;99.90
41928;DHT22;27616;51.420;6.788;2023-05-09T07:13:50;18.40;99.90
41928;DHT22;27616;51.420;6.788;2023-05-09T07:16:15;18.50;99.90
41928;DHT22;27616;51.420;6.788;2023-05-09T07:18:43;18.50;99.90
41928;DHT22;27616;51.420;6.788;2023-05-09T07:21:09;18.50;99.90
41928;DHT22;27616;51.420;6.788;2023-05-09T07:23:34;18.50;99.90
41928;DHT22;27616;51.420;6.788;2023-05-09T07:26:00;18.60;99.90
41928;DHT22;27616;51.420;6.788;2023-05-09T07:28:26;18.70;99.90
41928;DHT22;27616;51.420;6.788;2023-05-09T07:30:54;18.70;99.90
41928;DHT22;27616;51.420;6.788;2023-05-09T07:33:19;18.60;99.90
41928;DHT22;27616;51.420;6.788;2023-05-09T07:35:45;18.50;99.90
41928;DHT22;27616;51.420;6.788;2023-05-09T07:38:11;18.50;99.90
41928;DHT22;27616;51.420;6.788;2023-05-09T07:40:36;18.50;99.90
41928;DHT22;27616;51.420;6.788;2023-05-09T07:43:03;18.60;99.90
41928;DHT22;27616;51.420;6.788;2023-05-09T07:45:29;18.50;99.90
41928;DHT22;27616;51.420;6.788;2023-05-09T07:47:55;18.50;99.90
41928;DHT22;27616;51.420;6.788;2023-05-09T07:50:20;18.50;99.90
41928;DHT22;27616;51.420;6.788;2023-05-09T07:52:48;18.60;99.90
41928;DHT22;27616;51.420;6.788;2023-05-09T07:55:14;18.50;99.90
41928;DHT22;27616;51.420;6.788;2023-05-09T07:57:39;18.50;99.90
41928;DHT22;27616;51.420;6.788;2023-05-09T08:00:06;18.60;99.90
41928;DHT22;27616;51.420;6.788;2023-05-09T08:02:38;18.50;99.90
41928;DHT22;27616;51.420;6.788;2023-05-09T08:05:05;18.60;99.90
41928;DHT22;27616;51.420;6.788;2023-05-09T08:07:31;18.70;99.90
41928;DHT22;27616;51.420;6.788;2023-05-09T08:09:56;18.80;99.90
41928;DHT22;27616;51.420;6.788;2023-05-09T08:12:22;18.90;99.90
41928;DHT22;27616;51.420;6.788;2023-05-09T08:14:48;18.90;99.90
41928;DHT22;27616;51.420;6.788;2023-05-09T08:17:13;19.00;99.90
41928;DHT22;27616;51.420;6.788;2023-05-09T08:19:39;19.10;99.90
41928;DHT22;27616;51.420;6.788;2023-05-09T08:22:05;19.10;99.90
41928;DHT22;27616;51.420;6.788;2023-05-09T08:24:31;19.20;99.90
41928;DHT22;27616;51.420;6.788;2023-05-09T08:26:57;19.30;99.90
41928;DHT22;27616;51.420;6.788;2023-05-09T08:29:22;19.60;99.90
41928;DHT22;27616;51.420;6.788;2023-05-09T08:31:48;19.70;99.90
41928;DHT22;27616;51.420;6.788;2023-05-09T08:34:14;19.80;99.90
41928;DHT22;27616;51.420;6.788;2023-05-09T08:36:40;19.80;99.90
41928;DHT22;27616;51.420;6.788;2023-05-09T08:39:06;20.00;99.90
41928;DHT22;27616;51.420;6.788;2023-05-09T08:41:32;20.10;99.90
41928;DHT22;27616;51.420;6.788;2023-05-09T08:44:00;20.20;99.90
41928;DHT22;27616;51.420;6.788;2023-05-09T08:46:38;20.20;99.90
41928;DHT22;27616;51.420;6.788;2023-05-09T08:49:06;20.00;99.90
41928;DHT22;27616;51.420;6.788;2023-05-09T08:51:34;20.00;99.90
41928;DHT22;27616;51.420;6.788;2023-05-09T08:54:00;19.80;99.90
41928;DHT22;27616;51.420;6.788;2023-05-09T08:56:26;19.80;99.90
41928;DHT22;27616;51.420;6.788;2023-05-09T08:58:53;19.80;99.90
41928;DHT22;27616;51.420;6.788;2023-05-09T09:01:20;19.90;99.90
41928;DHT22;27616;51.420;6.788;2023-05-09T09:03:48;20.00;99.90
41928;DHT22;27616;51.420;6.788;2023-05-09T09:06:15;20.20;99.90
41928;DHT22;27616;51.420;6.788;2023-05-09T09:08:41;20.30;99.90
41928;DHT22;27616;51.420;6.788;2023-05-09T09:11:12;20.30;99.90
41928;DHT22;27616;51.420;6.788;2023-05-09T09:13:39;20.30;99.90
41928;DHT22;27616;51.420;6.788;2023-05-09T09:16:09;20.30;99.90
41928;DHT22;27616;51.420;6.788;2023-05-09T09:18:36;20.40;99.90
41928;DHT22;27616;51.420;6.788;2023-05-09T09:21:07;20.40;99.90
41928;DHT22;27616;51.420;6.788;2023-05-09T09:23:34;20.50;99.90
41928;DHT22;27616;51.420;6.788;2023-05-09T09:26:02;20.80;99.90
41928;DHT22;27616;51.420;6.788;2023-05-09T09:28:32;20.70;99.90
41928;DHT22;27616;51.420;6.788;2023-05-09T09:30:57;20.50;99.90
41928;DHT22;27616;51.420;6.788;2023-05-09T09:33:24;20.40;99.90
41928;DHT22;27616;51.420;6.788;2023-05-09T09:35:51;20.60;99.90
41928;DHT22;27616;51.420;6.788;2023-05-09T09:38:18;20.50;99.90
41928;DHT22;27616;51.420;6.788;2023-05-09T09:41:02;20.30;99.90
41928;DHT22;27616;51.420;6.788;2023-05-09T09:43:29;20.40;99.90
41928;DHT22;27616;51.420;6.788;2023-05-09T09:45:56;20.50;99.90
41928;DHT22;27616;51.420;6.788;2023-05-09T09:48:26;20.60;99.90
41928;DHT22;27616;51.420;6.788;2023-05-09T09:50:55;20.60;99.90
41928;DHT22;27616;51.420;6.788;2023-05-09T09:53:25;20.50;99.90
41928;DHT22;27616;51.420;6.788;2023-05-09T09:55:54;20.40;99.90
41928;DHT22;27616;51.420;6.788;2023-05-09T09:58:20;20.40;99.90
41928;DHT22;27616;51.420;6.788;2023-05-09T10:01:10;20.50;99.90
41928;DHT22;27616;51.420;6.788;2023-05-09T10:03:42;20.50;99.90
41928;DHT22;27616;51.420;6.788;2023-05-09T10:06:10;20.60;99.90
41928;DHT22;27616;51.420;6.788;2023-05-09T10:08:36;20.60;99.90
41928;DHT22;27616;51.420;6.788;2023-05-09T10:11:02;20.60;99.90
41928;DHT22;27616;51.420;6.788;2023-05-09T10:13:28;20.60;99.90
41928;DHT22;27616;51.420;6.788;2023-05-09T10:15:56;20.60;99.90
41928;DHT22;27616;51.420;6.788;2023-05-09T10:18:29;20.60;99.90
41928;DHT22;27616;51.420;6.788;2023-05-09T10:20:58;20.50;99.90
41928;DHT22;27616;51.420;6.788;2023-05-09T10:23:29;20.50;99.90
41928;DHT22;27616;51.420;6.788;2023-05-09T10:28:41;20.70;99.90
41928;DHT22;27616;51.420;6.788;2023-05-09T10:31:18;20.60;99.90
41928;DHT22;27616;51.420;6.788;2023-05-09T10:33:48;20.60;99.90
41928;DHT22;27616;51.420;6.788;2023-05-09T10:36:21;20.60;99.90
41928;DHT22;27616;51.420;6.788;2023-05-09T10:38:51;20.60;99.90
41928;DHT22;27616;51.420;6.788;2023-05-09T10:41:19;20.60;99.90
41928;DHT22;27616;51.420;6.788;2023-05-09T10:43:46;20.70;99.90
41928;DHT22;27616;51.420;6.788;2023-05-09T10:46:13;20.80;99.90
41928;DHT22;27616;51.420;6.788;2023-05-09T10:48:40;20.80;99.90
41928;DHT22;27616;51.420;6.788;2023-05-09T10:51:07;20.90;99.90
41928;DHT22;27616;51.420;6.788;2023-05-09T10:53:47;20.90;99.90
41928;DHT22;27616;51.420;6.788;2023-05-09T10:56:28;21.20;99.90
41928;DHT22;27616;51.420;6.788;2023-05-09T10:58:55;21.30;99.90
41928;DHT22;27616;51.420;6.788;2023-05-09T11:01:33;21.40;99.90
41928;DHT22;27616;51.420;6.788;2023-05-09T11:04:09;21.50;99.90
41928;DHT22;27616;51.420;6.788;2023-05-09T11:12:14;21.60;99.90
41928;DHT22;27616;51.420;6.788;2023-05-09T11:14:42;21.60;99.90
41928;DHT22;27616;51.420;6.788;2023-05-09T11:17:11;21.60;99.90
41928;DHT22;27616;51.420;6.788;2023-05-09T11:22:23;21.70;99.90
41928;DHT22;27616;51.420;6.788;2023-05-09T11:25:07;21.70;99.90
41928;DHT22;27616;51.420;6.788;2023-05-09T11:27:44;21.70;99.90
41928;DHT22;27616;51.420;6.788;2023-05-09T11:30:12;21.90;99.90
41928;DHT22;27616;51.420;6.788;2023-05-09T11:32:54;21.90;99.90
41928;DHT22;27616;51.420;6.788;2023-05-09T11:35:23;22.10;99.90
41928;DHT22;27616;51.420;6.788;2023-05-09T11:38:01;22.30;99.90
41928;DHT22;27616;51.420;6.788;2023-05-09T11:40:29;22.40;99.90
41928;DHT22;27616;51.420;6.788;2023-05-09T11:42:56;22.40;99.90
41928;DHT22;27616;51.420;6.788;2023-05-09T11:45:23;22.40;99.90
41928;DHT22;27616;51.420;6.788;2023-05-09T11:47:50;22.40;99.90
41928;DHT22;27616;51.420;6.788;2023-05-09T11:50:17;22.40;99.90
41928;DHT22;27616;51.420;6.788;2023-05-09T11:52:45;22.40;99.90
41928;DHT22;27616;51.420;6.788;2023-05-09T11:55:13;22.40;99.90
41928;DHT22;27616;51.420;6.788;2023-05-09T11:57:52;22.30;99.90
41928;DHT22;27616;51.420;6.788;2023-05-09T12:00:20;22.30;99.90
41928;DHT22;27616;51.420;6.788;2023-05-09T12:02:47;22.20;99.90
41928;DHT22;27616;51.420;6.788;2023-05-09T12:05:15;22.00;99.90
41928;DHT22;27616;51.420;6.788;2023-05-09T12:07:41;21.80;99.90
41928;DHT22;27616;51.420;6.788;2023-05-09T12:10:14;21.90;99.90
41928;DHT22;27616;51.420;6.788;2023-05-09T12:12:48;21.90;99.90
41928;DHT22;27616;51.420;6.788;2023-05-09T12:15:15;22.00;99.90
41928;DHT22;27616;51.420;6.788;2023-05-09T12:17:42;22.10;99.90
41928;DHT22;27616;51.420;6.788;2023-05-09T12:20:09;22.00;99.90
41928;DHT22;27616;51.420;6.788;2023-05-09T12:22:35;21.90;99.90
41928;DHT22;27616;51.420;6.788;2023-05-09T12:25:08;22.00;99.90
41928;DHT22;27616;51.420;6.788;2023-05-09T12:27:35;21.90;99.90
41928;DHT22;27616;51.420;6.788;2023-05-09T12:30:04;21.90;99.90
41928;DHT22;27616;51.420;6.788;2023-05-09T12:32:36;21.90;99.80
41928;DHT22;27616;51.420;6.788;2023-05-09T12:35:03;21.70;99.90
41928;DHT22;27616;51.420;6.788;2023-05-09T12:37:30;21.60;99.90
41928;DHT22;27616;51.420;6.788;2023-05-09T12:42:27;21.80;99.80
41928;DHT22;27616;51.420;6.788;2023-05-09T12:44:53;21.90;99.80
41928;DHT22;27616;51.420;6.788;2023-05-09T12:47:19;21.90;99.70
41928;DHT22;27616;51.420;6.788;2023-05-09T12:49:48;22.00;99.70
41928;DHT22;27616;51.420;6.788;2023-05-09T12:52:18;22.00;99.60
41928;DHT22;27616;51.420;6.788;2023-05-09T12:54:47;22.10;99.50
41928;DHT22;27616;51.420;6.788;2023-05-09T12:57:23;21.90;99.30
41928;DHT22;27616;51.420;6.788;2023-05-09T12:59:49;21.90;99.70
41928;DHT22;27616;51.420;6.788;2023-05-09T13:02:15;21.80;99.90
41928;DHT22;27616;51.420;6.788;2023-05-09T13:04:41;21.70;99.90
41928;DHT22;27616;51.420;6.788;2023-05-09T13:07:08;21.30;99.90
41928;DHT22;27616;51.420;6.788;2023-05-09T13:09:35;21.00;99.90
41928;DHT22;27616;51.420;6.788;2023-05-09T13:12:02;20.30;99.90
41928;DHT22;27616;51.420;6.788;2023-05-09T13:14:28;20.00;99.90
41928;DHT22;27616;51.420;6.788;2023-05-09T13:16:54;19.80;99.90
41928;DHT22;27616;51.420;6.788;2023-05-09T13:19:20;19.60;99.90
41928;DHT22;27616;51.420;6.788;2023-05-09T13:21:46;19.50;99.90
41928;DHT22;27616;51.420;6.788;2023-05-09T13:24:12;19.20;99.90
41928;DHT22;27616;51.420;6.788;2023-05-09T13:26:38;19.00;99.90
41928;DHT22;27616;51.420;6.788;2023-05-09T13:29:04;18.70;99.90
41928;DHT22;27616;51.420;6.788;2023-05-09T13:31:30;18.20;99.90
41928;DHT22;27616;51.420;6.788;2023-05-09T13:33:55;18.00;99.90
41928;DHT22;27616;51.420;6.788;2023-05-09T13:36:21;17.90;99.90
41928;DHT22;27616;51.420;6.788;2023-05-09T13:38:47;17.80;99.90
41928;DHT22;27616;51.420;6.788;2023-05-09T13:41:13;17.80;99.90
41928;DHT22;27616;51.420;6.788;2023-05-09T13:43:44;17.80;99.90
41928;DHT22;27616;51.420;6.788;2023-05-09T13:46:10;17.90;99.90
41928;DHT22;27616;51.420;6.788;2023-05-09T13:48:36;17.90;99.90
41928;DHT22;27616;51.420;6.788;2023-05-09T13:51:02;17.90;99.90
41928;DHT22;27616;51.420;6.788;2023-05-09T13:53:28;17.90;99.90
41928;DHT22;27616;51.420;6.788;2023-05-09T13:55:53;17.90;99.90
41928;DHT22;27616;51.420;6.788;2023-05-09T13:58:19;17.80;99.90
41928;DHT22;27616;51.420;6.788;2023-05-09T14:00:45;17.90;99.90
41928;DHT22;27616;51.420;6.788;2023-05-09T14:03:11;17.90;99.90
41928;DHT22;27616;51.420;6.788;2023-05-09T14:05:37;17.80;99.90
41928;DHT22;27616;51.420;6.788;2023-05-09T14:08:02;17.80;99.90
41928;DHT22;27616;51.420;6.788;2023-05-09T14:10:28;17.80;99.90
41928;DHT22;27616;51.420;6.788;2023-05-09T14:12:54;17.80;99.90
41928;DHT22;27616;51.420;6.788;2023-05-09T14:15:21;17.90;99.90
41928;DHT22;27616;51.420;6.788;2023-05-09T14:17:47;17.90;99.90
41928;DHT22;27616;51.420;6.788;2023-05-09T14:20:12;17.90;99.90
41928;DHT22;27616;51.420;6.788;2023-05-09T14:22:40;17.70;99.90
41928;DHT22;27616;51.420;6.788;2023-05-09T14:25:06;17.80;99.90
41928;DHT22;27616;51.420;6.788;2023-05-09T14:27:32;17.90;99.90
41928;DHT22;27616;51.420;6.788;2023-05-09T14:30:04;17.90;99.90
41928;DHT22;27616;51.420;6.788;2023-05-09T14:32:31;18.00;99.90
41928;DHT22;27616;51.420;6.788;2023-05-09T14:34:57;18.00;99.90
41928;DHT22;27616;51.420;6.788;2023-05-09T14:37:22;18.00;99.90
41928;DHT22;27616;51.420;6.788;2023-05-09T14:39:48;18.00;99.90
41928;DHT22;27616;51.420;6.788;2023-05-09T14:42:14;18.00;99.90
41928;DHT22;27616;51.420;6.788;2023-05-09T14:44:41;17.90;99.90
41928;DHT22;27616;51.420;6.788;2023-05-09T14:47:08;17.90;99.90
41928;DHT22;27616;51.420;6.788;2023-05-09T14:49:34;17.80;99.90
41928;DHT22;27616;51.420;6.788;2023-05-09T14:51:59;17.80;99.90
41928;DHT22;27616;51.420;6.788;2023-05-09T14:54:25;17.70;99.90
41928;DHT22;27616;51.420;6.788;2023-05-09T14:56:51;17.60;99.90
41928;DHT22;27616;51.420;6.788;2023-05-09T14:59:17;17.40;99.90
41928;DHT22;27616;51.420;6.788;2023-05-09T15:01:44;17.20;99.90
41928;DHT22;27616;51.420;6.788;2023-05-09T15:04:10;17.00;99.90
41928;DHT22;27616;51.420;6.788;2023-05-09T15:06:36;16.80;99.90
41928;DHT22;27616;51.420;6.788;2023-05-09T15:09:02;16.60;99.90
41928;DHT22;27616;51.420;6.788;2023-05-09T15:11:28;16.50;99.90
41928;DHT22;27616;51.420;6.788;2023-05-09T15:13:54;16.40;99.90
41928;DHT22;27616;51.420;6.788;2023-05-09T15:16:20;16.40;99.90
41928;DHT22;27616;51.420;6.788;2023-05-09T15:18:46;16.40;99.90
41928;DHT22;27616;51.420;6.788;2023-05-09T15:21:13;16.30;99.90
41928;DHT22;27616;51.420;6.788;2023-05-09T15:23:39;16.30;99.90
41928;DHT22;27616;51.420;6.788;2023-05-09T15:26:07;16.30;99.90
41928;DHT22;27616;51.420;6.788;2023-05-09T15:28:34;16.30;99.90
41928;DHT22;27616;51.420;6.788;2023-05-09T15:31:00;16.30;99.90
41928;DHT22;27616;51.420;6.788;2023-05-09T15:33:27;16.30;99.90
41928;DHT22;27616;51.420;6.788;2023-05-09T15:35:56;16.30;99.90
41928;DHT22;27616;51.420;6.788;2023-05-09T15:38:22;16.40;99.90
41928;DHT22;27616;51.420;6.788;2023-05-09T15:40:48;16.30;99.90
41928;DHT22;27616;51.420;6.788;2023-05-09T15:43:14;16.30;99.90
41928;DHT22;27616;51.420;6.788;2023-05-09T15:45:40;16.30;99.90
41928;DHT22;27616;51.420;6.788;2023-05-09T15:48:13;16.30;99.90
41928;DHT22;27616;51.420;6.788;2023-05-09T15:50:40;16.30;99.90
41928;DHT22;27616;51.420;6.788;2023-05-09T15:53:06;16.40;99.90
41928;DHT22;27616;51.420;6.788;2023-05-09T15:55:32;16.40;99.90